Time;durP1;ratioP1;P1;durP2;ratioP2;P2;SDS_P1;SDS_P2;PMS_P1;PMS_P2;Temp;Humidity;BMP_temperature;BMP_pressure;BME280_temperature;BME280_humidity;BME280_pressure;Samples;Min_cycle;Max_cycle;Signal;HPM_P1;HPM_P2
2023/04/17 00:00:44;;;;;;;315.37;39.97;;;5.40;1.00;6.30;94391.00;;;;7404765;19;20200;-85
2023/04/17 00:03:18;;;;;;;216.37;38.93;;;5.40;1.00;6.10;94390.00;;;;7400708;19;20144;-85
2023/04/17 00:05:47;;;;;;;591.10;54.93;;;5.40;1.00;6.10;94401.00;;;;7402030;19;20484;-84
2023/04/17 00:08:21;;;;;;;102.77;31.70;;;5.50;1.00;6.10;94415.00;;;;7398307;19;20133;-85
2023/04/17 00:10:48;;;;;;;96.03;32.27;;;5.40;1.00;6.10;94383.00;;;;7402796;19;20137;-84
2023/04/17 00:13:34;;;;;;;162.97;35.17;;;5.40;1.00;6.20;94409.00;;;;7402727;19;20152;-85
2023/04/17 00:16:12;;;;;;;473.20;53.03;;;5.40;1.00;6.10;94366.00;;;;7401255;19;20148;-84
2023/04/17 00:18:46;;;;;;;102.90;32.00;;;5.40;1.00;6.10;94393.00;;;;7400549;19;20623;-84
2023/04/17 00:21:15;;;;;;;393.43;45.67;;;5.40;1.00;6.30;94319.00;;;;7403761;19;20596;-85
2023/04/17 00:23:49;;;;;;;212.77;39.33;;;5.40;1.00;6.20;94381.00;;;;7404173;19;20632;-85
2023/04/17 00:26:16;;;;;;;83.37;31.40;;;5.40;1.00;6.20;94399.00;;;;7402112;19;20148;-86
2023/04/17 00:28:52;;;;;;;69.80;29.47;;;5.40;1.00;6.10;94402.00;;;;7404705;19;20139;-85
2023/04/17 00:31:26;;;;;;;51.40;26.50;;;5.40;1.00;5.90;94404.00;;;;7403352;19;20504;-85
2023/04/17 00:34:07;;;;;;;70.63;29.97;;;5.40;1.00;6.00;94395.00;;;;7402715;19;20494;-85
2023/04/17 00:36:48;;;;;;;77.47;29.93;;;5.40;1.00;5.90;94309.00;;;;7404018;19;20125;-85
2023/04/17 00:39:21;;;;;;;101.60;32.63;;;5.40;1.00;6.10;94387.00;;;;7402995;19;20165;-85
2023/04/17 00:41:48;;;;;;;60.17;28.13;;;5.40;1.00;6.10;94370.00;;;;7403848;19;20141;-85
2023/04/17 00:44:22;;;;;;;90.23;30.27;;;5.40;1.00;6.00;94396.00;;;;7402678;19;20200;-85
2023/04/17 00:46:49;;;;;;;131.90;33.63;;;5.40;1.00;6.10;94402.00;;;;7403169;19;20516;-85
2023/04/17 00:49:25;;;;;;;79.70;30.10;;;5.40;1.00;6.10;94400.00;;;;7401646;19;20202;-86
2023/04/17 00:51:52;;;;;;;138.63;33.83;;;5.40;1.00;6.00;94396.00;;;;7401784;19;20627;-86
2023/04/17 00:54:28;;;;;;;99.00;31.70;;;5.40;1.00;6.10;94386.00;;;;7401545;19;20144;-86
2023/04/17 00:57:02;;;;;;;96.30;30.17;;;5.40;1.00;6.10;94377.00;;;;7401619;19;20132;-85
2023/04/17 00:59:31;;;;;;;72.40;28.93;;;5.40;1.00;6.20;94349.00;;;;7402142;19;20149;-86
2023/04/17 01:02:05;;;;;;;82.50;29.67;;;5.40;1.00;6.10;94371.00;;;;7396039;19;20210;-75
2023/04/17 01:04:46;;;;;;;76.23;29.43;;;5.30;1.00;6.00;94387.00;;;;7400269;19;20129;-76
2023/04/17 01:07:20;;;;;;;86.00;29.37;;;5.40;1.00;6.10;94386.00;;;;7400471;19;20166;-76
2023/04/17 01:09:48;;;;;;;108.00;32.03;;;5.40;1.00;6.10;94370.00;;;;7394347;19;20148;-76
2023/04/17 01:12:24;;;;;;;121.80;32.73;;;5.40;1.00;6.00;94383.00;;;;7400115;19;20128;-75
2023/04/17 01:14:57;;;;;;;197.73;33.97;;;5.40;1.00;5.90;94380.00;;;;7395068;19;20133;-76
2023/04/17 01:17:25;;;;;;;86.77;29.33;;;5.40;1.00;6.00;94369.00;;;;7398681;19;20553;-77
2023/04/17 01:19:59;;;;;;;76.43;28.03;;;5.40;1.00;6.00;94369.00;;;;7399415;19;20171;-75
2023/04/17 01:22:26;;;;;;;84.43;30.33;;;5.40;1.00;6.20;94363.00;;;;7400740;19;20204;-76
2023/04/17 01:25:00;;;;;;;100.50;30.47;;;5.40;1.00;6.10;94377.00;;;;7399565;19;20160;-74
2023/04/17 01:27:34;;;;;;;84.43;29.97;;;5.30;1.00;6.10;94362.00;;;;7400897;19;20153;-75
2023/04/17 01:30:08;;;;;;;123.40;31.47;;;5.30;1.00;6.10;94386.00;;;;7399478;19;20200;-74
2023/04/17 01:32:42;;;;;;;84.57;29.20;;;5.30;1.00;6.10;94379.00;;;;7400619;19;20611;-75
2023/04/17 01:35:16;;;;;;;129.73;31.70;;;5.40;1.00;6.00;94384.00;;;;7397601;19;20149;-76
2023/04/17 01:37:43;;;;;;;93.73;30.07;;;5.30;1.00;6.10;94370.00;;;;7397308;19;20655;-75
2023/04/17 01:40:17;;;;;;;67.43;28.20;;;5.30;1.00;6.10;94375.00;;;;7399940;19;20460;-76
2023/04/17 01:42:44;;;;;;;95.93;28.93;;;5.30;1.00;6.10;94380.00;;;;7398458;19;20137;-75
2023/04/17 01:45:18;;;;;;;469.70;45.20;;;5.30;1.00;6.20;94355.00;;;;7399238;19;20133;-73
2023/04/17 01:47:52;;;;;;;804.53;57.53;;;5.30;1.00;6.20;94377.00;;;;7398725;19;20486;-74
2023/04/17 01:50:19;;;;;;;1289.73;85.23;;;5.30;1.00;6.10;94366.00;;;;7397967;19;20173;-75
2023/04/17 01:52:53;;;;;;;289.00;41.00;;;5.30;1.00;6.20;94379.00;;;;7398539;19;20148;-75
2023/04/17 01:55:20;;;;;;;90.70;29.83;;;5.30;1.00;6.00;94387.00;;;;7398286;19;20604;-75
2023/04/17 01:57:54;;;;;;;83.03;30.27;;;5.30;1.00;6.10;94386.00;;;;7398097;19;20196;-76
2023/04/17 02:00:21;;;;;;;138.80;33.23;;;5.30;1.00;6.10;94356.00;;;;7397503;19;20169;-75
2023/04/17 02:03:02;;;;;;;536.07;47.27;;;5.30;1.00;6.10;94385.00;;;;7398893;19;20176;-73
2023/04/17 02:05:29;;;;;;;726.67;54.77;;;5.30;1.00;6.10;94371.00;;;;7397492;19;20498;-75
2023/04/17 02:08:02;;;;;;;111.30;30.80;;;5.30;1.00;6.10;94376.00;;;;7396310;19;20136;-76
2023/04/17 02:10:29;;;;;;;76.53;28.30;;;5.30;1.00;6.00;94357.00;;;;7398929;19;20131;-76
2023/04/17 02:12:57;;;;;;;84.40;30.23;;;5.30;1.00;5.90;94364.00;;;;7399584;19;20158;-73
2023/04/17 02:15:30;;;;;;;93.90;30.77;;;5.30;1.00;6.00;94383.00;;;;7398729;19;20125;-76
2023/04/17 02:17:57;;;;;;;125.30;32.13;;;5.30;1.00;6.00;94370.00;;;;7396301;19;20616;-75
2023/04/17 02:20:32;;;;;;;71.47;28.77;;;5.30;1.00;5.90;94374.00;;;;7397057;19;20452;-76
2023/04/17 02:23:06;;;;;;;85.10;29.93;;;5.30;1.00;6.00;94370.00;;;;7398965;19;20137;-75
2023/04/17 02:25:34;;;;;;;126.90;33.60;;;5.30;1.00;6.00;94343.00;;;;7396438;19;20157;-74
2023/04/17 02:28:07;;;;;;;128.90;34.00;;;5.20;1.00;6.00;94347.00;;;;7399237;19;20132;-76
2023/04/17 02:30:34;;;;;;;84.30;30.37;;;5.20;1.00;6.10;94351.00;;;;7396660;19;20188;-78
2023/04/17 02:33:02;;;;;;;189.80;35.17;;;5.20;1.00;6.00;94366.00;;;;7397231;19;20576;-77
2023/04/17 02:35:35;;;;;;;64.63;26.70;;;5.30;1.00;6.00;94369.00;;;;7397849;19;20153;-76
2023/04/17 02:38:09;;;;;;;97.33;28.70;;;5.30;1.00;6.00;94373.00;;;;7396639;19;20192;-76
2023/04/17 02:40:43;;;;;;;108.50;31.53;;;5.30;1.00;6.10;94366.00;;;;7396640;19;20129;-76
2023/04/17 02:43:12;;;;;;;115.57;31.07;;;5.20;1.00;6.00;94352.00;;;;7398288;19;20140;-74
2023/04/17 02:45:46;;;;;;;176.40;33.53;;;5.20;1.00;5.90;94360.00;;;;7395724;19;20151;-76
2023/04/17 02:48:20;;;;;;;127.00;33.03;;;5.30;1.00;6.00;94356.00;;;;7401380;19;20143;-76
2023/04/17 02:50:53;;;;;;;230.60;34.23;;;5.30;1.00;5.90;94354.00;;;;7404046;19;20176;-75
2023/04/17 02:53:27;;;;;;;272.37;37.27;;;5.20;1.00;5.80;94356.00;;;;7405758;19;20152;-74
2023/04/17 02:56:01;;;;;;;616.00;51.07;;;5.20;1.00;6.00;94376.00;;;;7403915;19;20248;-76
2023/04/17 02:58:28;;;;;;;385.37;41.17;;;5.30;1.00;6.00;94367.00;;;;7404118;19;20494;-74
2023/04/17 03:01:02;;;;;;;306.73;37.73;;;5.20;1.00;6.20;94368.00;;;;7405203;19;20582;-75
2023/04/17 03:03:40;;;;;;;655.73;54.80;;;5.20;1.00;5.90;94378.00;;;;7401186;19;20176;-74
2023/04/17 03:06:14;;;;;;;640.30;53.20;;;5.20;1.00;5.90;94375.00;;;;7404986;19;20137;-76
2023/04/17 03:08:42;;;;;;;1169.27;69.10;;;5.20;1.00;6.00;94363.00;;;;7399921;19;20523;-75
2023/04/17 03:11:15;;;;;;;695.77;52.87;;;5.20;1.00;5.80;94368.00;;;;7404777;19;20163;-74
2023/04/17 03:13:42;;;;;;;304.63;36.13;;;5.20;1.00;5.90;94366.00;;;;7404020;19;20215;-75
2023/04/17 03:16:16;;;;;;;86.60;28.93;;;5.20;1.00;5.90;94377.00;;;;7403435;19;20144;-75
2023/04/17 03:18:44;;;;;;;90.47;28.73;;;5.20;1.00;5.90;94384.00;;;;7402818;19;20137;-76
2023/04/17 03:21:17;;;;;;;64.07;25.20;;;5.20;1.00;5.90;94355.00;;;;7403804;19;20644;-76
2023/04/17 03:23:51;;;;;;;51.43;21.90;;;5.20;1.00;5.80;94355.00;;;;7404889;19;20125;-76
2023/04/17 03:26:25;;;;;;;52.33;24.33;;;5.20;1.00;5.80;94362.00;;;;7403469;19;20219;-75
2023/04/17 03:28:52;;;;;;;54.67;25.20;;;5.20;1.00;5.80;94363.00;;;;7404246;19;20631;-75
2023/04/17 03:31:26;;;;;;;78.20;27.60;;;5.20;1.00;5.80;94349.00;;;;7400445;19;20163;-75
2023/04/17 03:34:00;;;;;;;442.73;40.17;;;5.10;1.00;5.80;94362.00;;;;7403132;19;20491;-76
2023/04/17 03:36:35;;;;;;;947.20;69.33;;;5.20;1.00;5.80;94374.00;;;;7404826;19;20132;-75
2023/04/17 03:39:08;;;;;;;760.40;54.33;;;5.20;1.00;5.90;94380.00;;;;7401628;19;20596;-75
2023/04/17 03:41:37;;;;;;;844.53;58.13;;;5.10;1.00;5.80;94370.00;;;;7404222;19;20675;-76
2023/04/17 03:44:11;;;;;;;754.37;49.77;;;5.20;1.00;6.00;94386.00;;;;7403825;19;20135;-75
2023/04/17 03:46:45;;;;;;;714.80;57.30;;;5.20;1.00;5.90;94366.00;;;;7403123;19;20153;-74
2023/04/17 03:49:19;;;;;;;1417.60;81.27;;;5.10;1.00;5.90;94358.00;;;;7403740;19;20147;-75
2023/04/17 03:51:53;;;;;;;959.63;70.10;;;5.10;1.00;5.80;94378.00;;;;7402592;19;20150;-75
2023/04/17 03:54:28;;;;;;;874.53;57.57;;;5.20;1.00;5.80;94381.00;;;;7402691;19;20555;-76
2023/04/17 03:56:55;;;;;;;1201.33;67.43;;;5.20;1.00;5.90;94376.00;;;;7402074;19;20125;-76
2023/04/17 03:59:30;;;;;;;945.67;62.17;;;5.10;1.00;5.80;94359.00;;;;7401723;19;20197;-73
2023/04/17 04:01:57;;;;;;;1440.70;86.80;;;5.20;1.00;5.80;94377.00;;;;7402110;19;20180;-74
2023/04/17 04:04:38;;;;;;;1447.30;86.17;;;5.20;1.00;6.00;94388.00;;;;7400082;19;20595;-75
2023/04/17 04:07:12;;;;;;;792.03;55.87;;;5.10;1.00;5.90;94383.00;;;;7398390;19;20140;-76
2023/04/17 04:09:39;;;;;;;986.47;58.63;;;5.10;1.00;5.80;94392.00;;;;7401051;19;20137;-75
2023/04/17 04:12:13;;;;;;;1287.00;84.63;;;5.10;1.00;5.90;94382.00;;;;7401900;19;20125;-75
2023/04/17 04:14:41;;;;;;;1076.20;65.17;;;5.10;1.00;5.90;94388.00;;;;7402002;19;20125;-76
2023/04/17 04:17:08;;;;;;;1353.63;74.30;;;5.10;1.00;5.90;94392.00;;;;7402506;19;20137;-75
2023/04/17 04:19:42;;;;;;;1206.60;69.33;;;5.10;1.00;5.80;94359.00;;;;7401667;19;20208;-75
2023/04/17 04:22:12;;;;;;;606.73;42.33;;;5.10;1.00;5.80;94388.00;;;;7403135;19;20125;-74
2023/04/17 04:24:46;;;;;;;514.10;42.83;;;5.10;1.00;5.80;94390.00;;;;7400708;19;20149;-75
2023/04/17 04:27:16;;;;;;;818.23;55.90;;;5.10;1.00;5.80;94400.00;;;;7401020;19;20148;-75
2023/04/17 04:29:49;;;;;;;1004.53;58.17;;;5.10;1.00;5.70;94388.00;;;;7401484;19;20671;-76
2023/04/17 04:32:16;;;;;;;1295.23;75.63;;;5.10;1.00;5.60;94360.00;;;;7401329;19;20211;-75
2023/04/17 04:34:50;;;;;;;1687.63;95.27;;;5.10;1.00;5.80;94388.00;;;;7400399;19;20132;-76
2023/04/17 04:37:20;;;;;;;1103.07;75.67;;;5.10;1.00;5.80;94370.00;;;;7402550;19;20168;-76
2023/04/17 04:40:00;;;;;;;1466.33;74.73;;;5.10;1.00;5.80;94383.00;;;;7401860;19;20140;-76
2023/04/17 04:42:34;;;;;;;1224.30;65.27;;;5.10;1.00;5.80;94395.00;;;;7400796;19;20145;-75
2023/04/17 04:45:09;;;;;;;1218.07;65.10;;;5.10;1.00;5.70;94393.00;;;;7399270;19;20624;-74
2023/04/17 04:47:36;;;;;;;1248.67;69.07;;;5.10;1.00;5.80;94389.00;;;;7399460;19;20128;-74
2023/04/17 04:50:09;;;;;;;1002.73;60.70;;;5.10;1.00;5.80;94371.00;;;;7401452;19;20133;-75
2023/04/17 04:52:46;;;;;;;869.53;55.43;;;5.10;1.00;5.70;94391.00;;;;7401630;19;20133;-75
2023/04/17 04:55:20;;;;;;;842.37;56.53;;;5.10;1.00;5.70;94378.00;;;;7399413;19;20186;-76
2023/04/17 04:57:54;;;;;;;428.07;39.97;;;5.10;1.00;5.80;94408.00;;;;7399521;19;20136;-76
2023/04/17 05:00:28;;;;;;;141.30;27.93;;;5.10;1.00;5.60;94410.00;;;;7399582;19;20668;-75
2023/04/17 05:03:09;;;;;;;251.10;33.13;;;5.10;1.00;5.60;94408.00;;;;7398716;19;20168;-75
2023/04/17 05:05:50;;;;;;;440.90;39.60;;;5.10;1.00;5.70;94413.00;;;;7400412;19;20117;-74
2023/04/17 05:08:23;;;;;;;472.30;45.60;;;5.10;1.00;5.60;94369.00;;;;7394929;19;20177;-74
2023/04/17 05:10:50;;;;;;;465.93;39.93;;;5.10;1.00;5.80;94418.00;;;;7399032;19;20164;-76
2023/04/17 05:13:24;;;;;;;338.93;36.33;;;5.10;1.00;5.80;94401.00;;;;7399604;19;20121;-76
2023/04/17 05:15:58;;;;;;;593.63;45.43;;;5.10;1.00;5.70;94417.00;;;;7400326;19;20145;-77
2023/04/17 05:18:32;;;;;;;747.60;57.93;;;5.10;1.00;5.70;94410.00;;;;7398313;19;20144;-74
2023/04/17 05:20:59;;;;;;;938.43;55.07;;;5.10;1.00;5.60;94404.00;;;;7399603;19;20152;-76
2023/04/17 05:23:33;;;;;;;1029.67;66.87;;;5.10;1.00;5.80;94403.00;;;;7398488;19;20796;-73
2023/04/17 05:26:00;;;;;;;1054.27;64.60;;;5.10;1.00;5.80;94406.00;;;;7399110;19;20136;-76
2023/04/17 05:28:34;;;;;;;966.80;71.27;;;5.10;1.00;5.80;94408.00;;;;7399423;19;20628;-76
2023/04/17 05:31:08;;;;;;;762.57;48.43;;;5.00;1.00;5.60;94390.00;;;;7391686;19;20148;-74
2023/04/17 05:33:35;;;;;;;953.10;64.23;;;5.00;1.00;5.70;94385.00;;;;7396786;19;20464;-75
2023/04/17 05:36:09;;;;;;;628.17;49.50;;;5.10;1.00;5.60;94410.00;;;;7395086;19;20145;-74
2023/04/17 05:38:43;;;;;;;1041.87;66.53;;;5.00;1.00;5.60;94410.00;;;;7395830;19;20129;-74
2023/04/17 05:41:17;;;;;;;1206.97;70.53;;;5.00;1.00;5.60;94394.00;;;;7394619;19;20139;-72
2023/04/17 05:43:44;;;;;;;1387.83;81.03;;;5.00;1.00;5.70;94421.00;;;;7394649;19;20527;-72
2023/04/17 05:46:18;;;;;;;1111.57;60.77;;;5.00;1.00;5.60;94390.00;;;;7394343;19;20139;-73
2023/04/17 05:48:52;;;;;;;1101.77;65.37;;;5.00;1.00;5.60;94417.00;;;;7396893;19;20478;-73
2023/04/17 05:51:20;;;;;;;1358.40;75.87;;;5.00;1.00;5.50;94383.00;;;;7395169;19;20136;-73
2023/04/17 05:53:53;;;;;;;1253.73;79.17;;;5.00;1.00;5.70;94415.00;;;;7393784;19;20144;-73
2023/04/17 05:56:20;;;;;;;1028.77;66.90;;;5.10;1.00;5.70;94408.00;;;;7393344;19;20472;-72
2023/04/17 05:58:54;;;;;;;1236.83;71.30;;;5.10;1.00;5.60;94423.00;;;;7392676;19;20137;-74
2023/04/17 06:01:21;;;;;;;1176.00;68.70;;;5.10;1.00;5.70;94416.00;;;;7393376;19;20143;-75
2023/04/17 06:04:02;;;;;;;1484.10;86.03;;;5.10;1.00;5.70;94416.00;;;;7391563;19;20153;-75
2023/04/17 06:06:37;;;;;;;1345.63;75.40;;;5.10;1.00;5.70;94415.00;;;;7390539;19;20502;-75
2023/04/17 06:09:10;;;;;;;1427.43;80.83;;;5.00;1.00;5.70;94392.00;;;;7396282;19;20132;-74
2023/04/17 06:11:38;;;;;;;1753.47;88.50;;;5.00;1.00;5.60;94401.00;;;;7395329;19;20512;-76
2023/04/17 06:14:11;;;;;;;1398.07;77.40;;;5.10;1.00;5.70;94425.00;;;;7394980;19;20161;-75
2023/04/17 06:16:38;;;;;;;1857.90;93.13;;;5.10;1.00;5.80;94419.00;;;;7392516;19;20140;-76
2023/04/17 06:19:12;;;;;;;1483.13;73.57;;;5.10;1.00;5.80;94413.00;;;;7394225;19;20487;-75
2023/04/17 06:21:40;;;;;;;1030.80;53.30;;;5.10;1.00;5.60;94414.00;;;;7394597;19;20596;-74
2023/04/17 06:24:13;;;;;;;1184.00;63.10;;;5.10;1.00;5.70;94412.00;;;;7393143;19;20177;-74
2023/04/17 06:26:47;;;;;;;1371.60;76.70;;;5.20;1.00;5.80;94412.00;;;;7392442;19;20568;-73
2023/04/17 06:29:23;;;;;;;1663.00;88.57;;;5.10;1.00;5.70;94439.00;;;;7395016;19;20153;-75
2023/04/17 06:31:56;;;;;;;1112.77;54.60;;;5.10;1.00;5.70;94426.00;;;;7393523;19;20150;-75
2023/04/17 06:34:46;;;;;;;1096.53;66.40;;;5.10;1.00;5.60;94443.00;;;;7388504;19;20162;-76
2023/04/17 06:37:32;;;;;;;1511.10;70.77;;;5.10;1.00;5.80;94435.00;;;;7397431;19;20148;-75
2023/04/17 06:40:06;;;;;;;1033.47;60.57;;;5.10;1.00;5.60;94401.00;;;;7394401;19;20591;-75
2023/04/17 06:42:40;;;;;;;1264.40;72.63;;;5.10;1.00;5.70;94423.00;;;;7397506;19;20514;-74
2023/04/17 06:45:08;;;;;;;1455.63;65.73;;;5.10;1.00;5.70;94427.00;;;;7392974;19;20208;-73
2023/04/17 06:47:45;;;;;;;985.90;51.30;;;5.10;1.00;5.80;94428.00;;;;7398495;19;20160;-75
2023/04/17 06:50:19;;;;;;;772.93;45.57;;;5.10;1.00;5.80;94438.00;;;;7396317;19;20539;-75
2023/04/17 06:52:53;;;;;;;1442.17;67.83;;;5.10;1.00;6.00;94413.00;;;;7398275;19;20482;-74
2023/04/17 06:55:20;;;;;;;1338.47;69.70;;;5.10;1.00;6.00;94448.00;;;;7396559;19;20129;-76
2023/04/17 06:57:54;;;;;;;1176.37;61.30;;;5.20;1.00;5.90;94445.00;;;;7394963;19;20149;-76
2023/04/17 07:00:22;;;;;;;1199.27;68.27;;;5.20;1.00;6.00;94437.00;;;;7395803;19;20137;-77
2023/04/17 07:03:13;;;;;;;1525.23;70.67;;;5.20;1.00;6.00;94422.00;;;;7395531;19;20184;-78
2023/04/17 07:05:47;;;;;;;1435.40;76.57;;;5.20;1.00;5.90;94435.00;;;;7394504;19;20213;-75
2023/04/17 07:08:21;;;;;;;762.47;44.03;;;5.20;1.00;5.80;94422.00;;;;7391395;19;20203;-75
2023/04/17 07:10:49;;;;;;;843.63;45.47;;;5.20;1.00;5.80;94447.00;;;;7396629;19;20149;-74
2023/04/17 07:13:16;;;;;;;925.90;49.20;;;5.20;1.00;5.70;94414.00;;;;7397005;19;20653;-76
2023/04/17 07:15:55;;;;;;;788.73;47.43;;;5.20;1.00;5.70;94456.00;;;;7395210;19;20133;-74
2023/04/17 07:18:28;;;;;;;866.33;53.47;;;5.20;1.00;5.80;94454.00;;;;7397133;19;20170;-75
2023/04/17 07:21:01;;;;;;;1020.53;59.70;;;5.20;1.00;5.90;94450.00;;;;7395618;19;20614;-78
2023/04/17 07:23:28;;;;;;;1198.27;61.67;;;5.20;1.00;6.00;94442.00;;;;7393944;19;20489;-76
2023/04/17 07:26:02;;;;;;;891.43;47.47;;;5.30;1.00;6.10;94467.00;;;;7394744;19;20616;-74
2023/04/17 07:28:39;;;;;;;989.57;50.43;;;5.30;1.00;6.10;94459.00;;;;7396499;19;20159;-76
2023/04/17 07:31:09;;;;;;;983.77;55.60;;;5.40;1.00;6.40;94456.00;;;;7395533;19;20149;-77
2023/04/17 07:33:42;;;;;;;1020.33;60.07;;;5.50;1.00;6.50;94444.00;;;;7391648;19;20162;-75
2023/04/17 07:36:18;;;;;;;1152.83;60.33;;;5.60;1.00;6.50;94442.00;;;;7401769;19;20494;-75
2023/04/17 07:38:53;;;;;;;920.07;50.90;;;5.60;1.00;6.50;94448.00;;;;7401110;19;20153;-73
2023/04/17 07:41:27;;;;;;;703.63;49.83;;;5.70;1.00;6.50;94455.00;;;;7403503;19;20153;-76
2023/04/17 07:44:05;;;;;;;516.80;33.07;;;5.70;1.00;6.50;94440.00;;;;7404030;19;20137;-77
2023/04/17 07:46:40;;;;;;;123.63;19.47;;;5.80;1.00;6.40;94462.00;;;;7403444;19;20145;-74
2023/04/17 07:49:15;;;;;;;164.87;19.70;;;5.80;1.00;6.30;94470.00;;;;7401914;19;20160;-74
2023/04/17 07:51:42;;;;;;;428.70;30.03;;;5.70;1.00;6.20;94450.00;;;;7403890;19;20150;-76
2023/04/17 07:54:16;;;;;;;761.27;45.30;;;5.70;1.00;6.30;94466.00;;;;7401717;19;20131;-75
2023/04/17 07:56:48;;;;;;;837.60;46.80;;;5.70;1.00;6.50;94464.00;;;;7401660;19;20157;-74
2023/04/17 07:59:21;;;;;;;347.40;26.90;;;5.80;1.00;6.60;94466.00;;;;7400812;19;20588;-77
2023/04/17 08:01:51;;;;;;;315.17;24.70;;;5.80;1.00;6.40;94462.00;;;;7400667;19;20557;-77
2023/04/17 08:04:25;;;;;;;247.70;21.63;;;5.70;1.00;6.40;94477.00;;;;7398484;19;20645;-76
2023/04/17 08:07:09;;;;;;;991.57;53.83;;;5.70;1.00;6.30;94442.00;;;;7401856;19;20135;-77
2023/04/17 08:09:43;;;;;;;912.17;46.83;;;5.70;1.00;6.30;94444.00;;;;7400585;19;20517;-76
2023/04/17 08:12:17;;;;;;;850.80;42.40;;;5.70;1.00;6.30;94464.00;;;;7402168;19;20140;-77
2023/04/17 08:14:51;;;;;;;913.67;45.87;;;5.70;1.00;6.40;94449.00;;;;7394913;19;20148;-75
2023/04/17 08:17:21;;;;;;;840.13;46.20;;;5.70;1.00;6.50;94481.00;;;;7401294;19;20125;-76
2023/04/17 08:19:56;;;;;;;1203.50;58.27;;;5.70;1.00;6.30;94421.00;;;;7400136;19;20125;-77
2023/04/17 08:22:24;;;;;;;945.03;48.40;;;5.70;1.00;6.30;94485.00;;;;7402135;19;20660;-76
2023/04/17 08:24:58;;;;;;;765.10;45.53;;;5.60;1.00;6.30;94487.00;;;;7399203;19;20148;-75
2023/04/17 08:27:27;;;;;;;1123.17;54.67;;;5.70;1.00;6.50;94480.00;;;;7400902;19;20137;-75
2023/04/17 08:30:00;;;;;;;1119.53;49.47;;;5.70;1.00;6.60;94480.00;;;;7399747;19;20140;-74
2023/04/17 08:32:45;;;;;;;901.27;48.10;;;5.80;1.00;6.60;94450.00;;;;7400252;19;20140;-76
2023/04/17 08:35:14;;;;;;;1134.60;59.17;;;5.80;1.00;6.40;94491.00;;;;7400226;19;20140;-76
2023/04/17 08:37:49;;;;;;;1068.73;53.03;;;5.80;1.00;6.40;94484.00;;;;7401369;19;20455;-77
2023/04/17 08:40:25;;;;;;;616.07;42.00;;;5.90;1.00;6.50;94484.00;;;;7397834;19;20476;-77
2023/04/17 08:43:01;;;;;;;1202.67;63.77;;;5.90;1.00;6.60;94474.00;;;;7399567;19;20144;-76
2023/04/17 08:45:28;;;;;;;987.37;54.50;;;5.90;1.00;6.60;94491.00;;;;7400306;19;20145;-76
2023/04/17 08:48:01;;;;;;;853.47;51.67;;;5.90;1.00;6.60;94487.00;;;;7400336;19;20526;-76
2023/04/17 08:50:31;;;;;;;652.47;36.73;;;5.90;1.00;6.50;94488.00;;;;7401717;19;20639;-77
2023/04/17 08:53:04;;;;;;;1258.17;66.93;;;5.80;1.00;6.60;94486.00;;;;7400003;19;20136;-77
2023/04/17 08:55:34;;;;;;;832.63;48.57;;;5.90;1.00;6.70;94479.00;;;;7399302;19;20157;-76
2023/04/17 08:58:08;;;;;;;308.90;25.43;;;5.90;1.00;6.70;94481.00;;;;7398984;19;20182;-76
2023/04/17 09:00:44;;;;;;;872.60;50.37;;;5.90;1.00;6.50;94498.00;;;;7397029;19;20169;-76
2023/04/17 09:03:20;;;;;;;779.47;43.43;;;5.80;1.00;6.40;94504.00;;;;7397141;19;20193;-76
2023/04/17 09:06:01;;;;;;;959.90;47.17;;;5.80;1.00;6.50;94487.00;;;;7400309;19;20616;-77
2023/04/17 09:08:28;;;;;;;908.83;51.43;;;5.80;1.00;6.70;94482.00;;;;7398554;19;20144;-74
2023/04/17 09:11:03;;;;;;;759.50;43.57;;;5.90;1.00;6.50;94493.00;;;;7401173;19;20132;-78
2023/04/17 09:13:39;;;;;;;1067.23;56.00;;;5.90;1.00;6.70;94502.00;;;;7395210;19;20167;-76
2023/04/17 09:16:11;;;;;;;322.33;26.07;;;5.90;1.00;6.80;94500.00;;;;7399495;19;20185;-74
2023/04/17 09:18:48;;;;;;;467.13;32.70;;;5.90;1.00;6.70;94500.00;;;;7397844;19;20148;-74
2023/04/17 09:21:17;;;;;;;70.07;16.63;;;6.00;1.00;6.80;94510.00;;;;7399195;19;20129;-74
2023/04/17 09:23:55;;;;;;;323.13;26.77;;;6.00;1.00;6.80;94503.00;;;;7398584;19;20152;-76
2023/04/17 09:26:32;;;;;;;190.13;21.87;;;6.10;1.00;6.80;94511.00;;;;7399518;19;20141;-77
2023/04/17 09:29:13;;;;;;;304.77;24.47;;;6.10;1.00;6.80;94505.00;;;;7399555;19;20129;-75
2023/04/17 09:31:47;;;;;;;505.00;34.23;;;6.10;1.00;6.60;94501.00;;;;7398159;19;20595;-76
2023/04/17 09:34:15;;;;;;;54.97;14.90;;;6.10;1.00;6.80;94505.00;;;;7398191;19;20140;-75
2023/04/17 09:36:53;;;;;;;130.73;19.03;;;6.10;1.00;6.80;94511.00;;;;7398534;19;20180;-76
2023/04/17 09:39:25;;;;;;;168.67;22.17;;;6.10;1.00;6.90;94511.00;;;;7397413;19;20671;-78
2023/04/17 09:42:02;;;;;;;63.20;15.40;;;6.10;99.90;6.80;94505.00;;;;7398337;19;20634;-77
2023/04/17 09:44:30;;;;;;;72.53;16.67;;;6.10;99.90;6.80;94471.00;;;;7398529;19;20139;-78
2023/04/17 09:46:59;;;;;;;51.93;15.60;;;6.00;99.90;6.70;94515.00;;;;7397760;19;20628;-79
2023/04/17 09:49:51;;;;;;;69.47;16.50;;;6.00;99.90;6.70;94479.00;;;;7399976;19;20604;-75
2023/04/17 09:52:25;;;;;;;51.17;16.60;;;6.00;99.90;6.80;94495.00;;;;7399744;19;20161;-75
2023/04/17 09:54:53;;;;;;;154.83;19.97;;;6.00;99.90;6.90;94517.00;;;;7399373;19;20128;-76
2023/04/17 09:57:27;;;;;;;249.60;27.03;;;6.10;99.90;6.90;94508.00;;;;7396125;19;20140;-76
2023/04/17 10:00:05;;;;;;;165.87;21.77;;;6.10;99.90;6.90;94505.00;;;;7398178;19;20137;-76
2023/04/17 10:02:37;;;;;;;287.97;25.33;;;6.20;99.90;6.90;94480.00;;;;7396468;19;20153;-75
2023/04/17 10:05:27;;;;;;;595.73;39.93;;;6.20;99.90;7.10;94484.00;;;;7395684;19;20644;-74
2023/04/17 10:08:02;;;;;;;556.53;35.70;;;6.30;99.90;7.20;94507.00;;;;7396220;19;20129;-77
2023/04/17 10:10:35;;;;;;;386.63;30.27;;;6.30;99.90;7.10;94516.00;;;;7398593;19;20136;-78
2023/04/17 10:13:11;;;;;;;141.70;20.20;;;6.30;99.90;7.10;94479.00;;;;7397382;19;20121;-75
2023/04/17 10:15:38;;;;;;;175.90;22.83;;;6.30;99.90;7.10;94500.00;;;;7393852;19;20132;-78
2023/04/17 10:18:23;;;;;;;225.57;25.37;;;6.30;99.90;7.20;94470.00;;;;7397913;19;20157;-77
2023/04/17 10:20:54;;;;;;;24.50;14.87;;;6.40;99.90;7.50;94505.00;;;;7394454;19;20579;-77
2023/04/17 10:23:33;;;;;;;21.40;12.67;;;6.60;99.90;7.60;94500.00;;;;7397340;19;20160;-75
2023/04/17 10:26:26;;;;;;;26.87;13.20;;;6.70;99.90;7.50;94500.00;;;;7396667;19;20132;-75
2023/04/17 10:28:56;;;;;;;21.37;12.03;;;6.60;99.90;7.40;94486.00;;;;7394004;19;20135;-77
2023/04/17 10:32:12;;;;;;;19.80;12.70;;;6.70;99.90;7.50;94498.00;;;;7392264;19;20611;-77
2023/04/17 10:34:46;;;;;;;20.37;13.97;;;6.70;17.90;7.50;94506.00;;;;7392048;19;20629;-75
2023/04/17 10:37:14;;;;;;;22.17;13.73;;;6.80;1.00;7.50;94498.00;;;;7392419;19;20518;-77
2023/04/17 10:39:58;;;;;;;20.27;12.90;;;6.90;1.00;7.60;94480.00;;;;7386211;19;20150;-75
2023/04/17 10:42:29;;;;;;;20.80;12.60;;;7.00;1.00;7.70;94504.00;;;;7391581;19;20532;-75
2023/04/17 10:45:07;;;;;;;18.97;12.93;;;7.00;1.00;7.60;94489.00;;;;7394047;19;20905;-76
2023/04/17 10:47:34;;;;;;;15.60;11.10;;;6.90;99.90;7.80;94478.00;;;;7392373;19;20709;-75
2023/04/17 10:50:09;;;;;;;15.83;11.70;;;7.00;99.90;8.10;94497.00;;;;7391977;19;20490;-75
2023/04/17 10:52:40;;;;;;;16.47;11.53;;;7.20;1.00;8.70;94482.00;;;;7391210;19;20150;-74
2023/04/17 10:55:21;;;;;;;16.87;11.67;;;7.50;1.00;8.60;94451.00;;;;7387088;19;20164;-77
2023/04/17 10:58:03;;;;;;;14.53;10.77;;;7.80;99.90;8.70;94488.00;;;;7392112;19;20145;-75
2023/04/17 11:00:49;;;;;;;16.17;12.73;;;7.90;1.00;8.40;94479.00;;;;7390927;19;20161;-77
2023/04/17 11:03:16;;;;;;;14.20;10.90;;;7.90;1.00;9.00;94486.00;;;;7389603;19;20650;-76
2023/04/17 11:05:59;;;;;;;15.45;12.52;;;8.00;1.00;8.90;94483.00;;;;7391655;19;20156;-75
2023/04/17 11:08:26;;;;;;;17.38;13.10;;;8.40;1.00;9.30;94472.00;;;;7393247;19;20157;-75
2023/04/17 11:11:00;;;;;;;28.40;20.27;;;8.60;99.90;9.20;94474.00;;;;7397519;19;20502;-77
2023/04/17 11:13:32;;;;;;;15.60;13.82;;;8.70;13.90;9.40;94459.00;;;;7399475;19;20627;-76
2023/04/17 11:16:06;;;;;;;14.32;12.13;;;8.90;1.00;9.90;94453.00;;;;7398733;19;20568;-77
2023/04/17 11:18:34;;;;;;;12.88;11.48;;;9.10;1.00;9.70;94482.00;;;;7399413;19;20510;-75
2023/04/17 11:21:11;;;;;;;9.90;8.77;;;9.20;1.00;9.50;94435.00;;;;7397383;19;20129;-76